Date,TemperatureHighF,TemperatureAvgF,TemperatureLowF,DewpointHighF,DewpointAvgF,DewpointLowF,HumidityHigh,HumidityAvg,HumidityLow,PressureMaxIn,PressureMinIn,WindSpeedMaxMPH,WindSpeedAvgMPH,GustSpeedMaxMPH,PrecipitationSumIn
2013-1-1,62.6,53.4,43.3,55.4,48.6,42.9,100,85,62,30.12,30.01,6,2,16,0.00
2013-1-2,66.2,50.7,42.4,51.6,47.4,42.2,100,89,59,30.33,30.10,7,2,17,0.01
2013-1-3,65.3,52.0,42.6,55.4,47.9,36.5,100,87,58,30.64,30.32,12,5,35,0.15
2013-1-4,61.7,50.2,36.5,51.5,42.8,36.2,99,78,52,30.64,30.50,17,4,27,0.00
2013-1-5,75.2,56.8,45.3,49.7,40.9,33.3,81,57,35,30.50,30.28,9,3,18,0.00
2013-1-6,75.0,57.1,42.3,53.3,44.7,38.7,100,66,37,30.35,30.26,6,2,11,0.00
2013-1-7,83.3,55.2,39.6,59.0,46.0,36.2,100,74,34,30.29,30.18,4,1,11,0.00
2013-1-8,72.1,50.7,38.3,59.3,46.9,38.0,100,88,61,30.33,30.26,3,1,7,0.00
2013-1-9,64.8,48.9,35.4,55.7,44.6,35.0,99,86,61,30.29,30.13,9,2,19,0.00
2013-1-10,66.4,56.1,43.0,54.6,48.4,40.1,100,76,56,30.14,30.07,14,4,42,0.00
2013-1-11,67.8,54.8,37.4,52.0,47.1,37.1,100,77,51,30.17,30.09,9,3,27,0.00
2013-1-12,66.0,48.4,36.0,56.2,44.6,35.7,100,88,61,30.15,29.95,9,2,16,0.00
2013-1-13,57.0,52.6,45.5,51.5,45.4,41.0,99,77,63,29.95,29.78,16,6,30,0.19
2013-1-14,59.0,50.4,39.4,52.8,43.8,38.9,100,79,59,30.01,29.91,11,3,30,0.01
2013-1-15,58.5,51.2,41.9,48.9,44.5,41.6,100,78,60,29.97,29.80,13,5,34,0.00
2013-1-16,63.3,55.5,50.7,53.6,48.1,42.4,89,76,56,29.93,29.62,13,6,33,0.02
2013-1-17,59.2,52.2,41.2,53.9,46.9,40.7,100,83,59,29.83,29.62,16,4,33,0.02
2013-1-18,64.2,56.8,46.4,57.9,51.3,42.7,100,82,66,29.78,29.51,21,4,40,0.01
2013-1-19,65.8,58.4,50.9,60.5,54.9,49.7,100,89,57,29.51,29.09,14,5,31,0.18
2013-1-20,55.6,50.7,40.5,54.5,46.8,40.0,100,87,66,29.62,29.10,11,4,30,0.09
2013-1-21,58.6,53.2,40.3,52.6,45.3,36.7,99,76,56,29.87,29.54,14,5,33,0.02
2013-1-22,59.2,49.5,37.0,51.4,40.9,34.5,100,74,51,29.88,29.51,15,4,33,0.13
2013-1-23,51.6,49.9,42.3,45.1,39.1,34.5,99,67,59,29.84,29.52,16,7,36,0.30
2013-1-24,52.2,48.2,41.7,51.7,43.6,32.9,100,85,50,29.83,29.55,16,6,38,0.78
2013-1-25,59.9,48.3,38.7,48.1,41.5,34.4,100,79,53,29.93,29.78,16,3,36,0.04
2013-1-26,60.8,47.7,35.8,50.8,44.0,34.3,100,88,64,30.12,29.74,14,3,31,0.17
2013-1-27,67.5,50.7,39.7,59.8,47.7,39.5,100,91,57,30.13,29.85,5,2,10,0.01
2013-1-28,63.9,53.3,44.2,55.0,49.0,43.6,100,86,59,30.33,29.82,18,5,36,0.32
2013-1-29,65.1,50.1,39.4,57.1,46.9,39.1,100,90,69,30.40,30.31,4,2,9,0.00
2013-1-30,72.0,50.8,37.0,58.7,45.8,36.8,100,85,46,30.36,30.28,5,2,12,0.00
2013-1-31,73.9,56.4,43.0,58.6,50.2,42.7,100,83,51,30.45,30.35,5,1,11,0.00
2013-2-1,72.9,53.6,40.6,64.1,49.9,40.2,100,89,48,30.35,29.78,11,2,25,0.00
2013-2-2,63.0,54.0,47.3,54.8,45.5,40.1,97,73,61,29.88,29.61,15,9,38,0.20
2013-2-3,55.9,47.0,35.8,40.7,33.9,27.0,100,62,43,30.33,29.86,20,6,35,0.01
2013-2-4,60.6,48.0,33.6,47.5,40.6,33.2,100,78,48,30.38,30.29,10,4,27,0.00
2013-2-5,68.0,51.2,38.3,56.6,45.2,37.0,100,82,54,30.29,29.96,13,3,26,0.00
2013-2-6,57.0,51.7,41.5,52.6,41.9,37.6,99,70,55,29.96,29.78,18,9,44,0.13
2013-2-7,54.0,49.6,47.1,42.2,35.7,24.9,80,60,38,30.07,29.79,17,9,40,0.04
2013-2-8,56.5,46.2,39.0,45.2,40.2,32.8,100,80,57,30.07,29.87,9,2,23,0.02
2013-2-9,54.3,44.2,33.8,42.5,34.8,28.3,100,71,51,30.16,29.98,10,3,24,0.00
2013-2-10,64.2,52.9,36.3,52.3,44.7,36.1,100,76,43,30.14,29.70,11,4,21,0.00
2013-2-11,58.8,52.3,46.0,52.2,39.7,33.1,97,63,52,29.74,29.60,16,6,36,0.06
2013-2-12,58.3,50.3,44.2,44.0,39.7,32.6,92,68,50,29.97,29.65,17,6,33,0.13
2013-2-13,66.7,51.3,39.7,48.9,43.8,36.1,100,77,43,30.13,29.93,8,2,16,0.19
2013-2-14,66.4,50.7,40.8,54.0,46.2,40.6,99,86,56,30.20,30.12,5,2,11,0.00
2013-2-15,68.9,51.2,41.0,57.2,46.0,40.7,99,85,47,30.19,30.07,12,3,27,0.01
2013-2-16,63.1,50.1,40.6,53.2,46.4,40.4,100,88,59,30.19,30.10,6,2,11,0.02
2013-2-17,59.5,50.5,42.1,54.2,49.4,41.6,100,96,80,30.10,29.93,3,1,8,0.00
2013-2-18,64.2,53.4,47.7,60.9,52.5,47.2,100,97,76,29.97,29.87,4,0,8,0.06
2013-2-19,63.9,50.9,43.0,55.7,47.3,42.5,99,89,63,29.99,29.92,7,2,17,0.01
2013-2-20,65.5,51.1,40.8,50.5,44.0,38.4,100,80,42,29.96,29.86,6,1,14,0.00
2013-2-21,69.1,51.0,38.8,57.2,47.2,38.6,100,88,59,29.92,29.69,9,2,20,0.00
2013-2-22,65.1,56.0,46.0,56.3,51.3,45.8,100,85,59,29.70,29.50,10,3,29,0.13
2013-2-23,52.3,45.0,39.9,51.3,42.1,33.3,100,90,67,29.87,29.35,19,4,40,0.11
2013-2-24,54.5,43.6,36.1,39.1,35.1,30.5,99,73,53,29.96,29.86,9,3,24,0.07
2013-2-25,53.1,40.0,33.4,44.6,36.9,31.1,100,90,48,30.10,29.95,11,1,20,0.07
2013-2-26,56.1,40.3,32.2,49.3,37.3,31.9,100,90,53,30.19,30.07,7,2,14,0.12
2013-2-27,61.5,44.7,29.1,44.4,37.5,28.7,99,79,45,30.19,30.06,8,2,18,0.01
2013-2-28,54.9,49.8,46.8,53.9,47.6,40.3,100,92,71,30.07,29.79,10,5,30,0.66
2013-3-1,58.6,48.8,41.9,52.5,47.5,41.6,100,95,76,29.83,29.67,17,3,49,0.44
2013-3-2,67.5,53.6,41.2,50.0,44.8,37.1,100,74,46,30.11,29.82,16,5,44,0.17
2013-3-3,66.7,50.9,37.4,54.7,45.1,37.1,100,84,46,30.11,29.96,6,2,14,0.00
2013-3-4,66.6,55.9,44.8,57.8,53.7,44.5,100,93,72,29.97,29.68,8,4,21,0.02
2013-3-5,70.2,61.3,56.1,59.3,56.5,53.7,100,85,63,29.68,29.31,11,4,21,0.08
2013-3-6,69.4,59.1,49.5,58.6,55.0,49.0,100,88,60,29.59,29.27,16,5,36,0.01
2013-3-7,77.2,62.9,49.5,61.8,56.5,49.0,99,82,52,29.74,29.57,14,4,30,0.00
2013-3-8,74.3,64.3,51.4,58.7,53.2,48.7,100,70,44,29.80,29.62,23,4,34,0.08
2013-3-9,72.7,58.8,49.1,55.1,52.2,48.0,100,81,46,29.78,29.70,15,4,27,0.00
2013-3-10,65.7,57.7,48.4,53.6,50.4,46.1,99,79,52,29.73,29.64,15,4,36,0.00
2013-3-11,66.0,59.8,56.5,49.9,47.8,44.1,77,65,51,29.69,29.64,11,6,29,0.00
2013-3-12,64.8,56.0,46.8,50.0,46.3,40.6,96,71,48,29.66,29.53,12,4,26,0.01
2013-3-13,64.2,43.6,32.0,55.4,45.9,40.7,100,56,69,29.63,29.36,16,2,29,0.04
2013-3-14,55.9,33.3,32.0,40.8,40.5,34.4,53,3,48,29.78,29.62,8,0,21,0.67
2013-3-15,58.5,54.9,46.8,41.2,38.9,34.8,73,55,42,30.03,29.81,14,4,19,0.00
2013-3-16,63.7,53.2,34.7,48.3,46.6,28.5,94,79,57,30.10,29.87,5,2,12,588.20
2013-3-17,68.0,56.2,46.8,58.7,51.5,-1.6,100,86,59,29.88,29.50,10,1,15,0.13
2013-3-18,63.3,55.9,46.4,55.7,49.7,37.3,99,82,44,29.80,29.45,8,3,19,0.06
2013-3-19,68.7,55.1,46.4,61.4,46.7,21.3,100,76,33,29.79,29.58,158,15,158,0.15
2013-3-20,49.1,49.1,49.1,21.3,21.3,21.3,33,33,33,30.13,29.55,94,94,94,0.15
2013-3-21,66.2,54.2,49.1,59.6,38.8,-1.1,100,62,10,30.14,29.97,106,46,106,0.15
2013-3-22,66.0,53.9,32.0,52.4,20.5,-1.1,99,40,10,30.54,29.84,106,57,106,0.15
2013-3-23,70.5,55.9,46.8,47.7,44.5,40.0,84,68,35,29.97,29.80,7,2,14,0.00
2013-3-24,68.4,56.9,48.2,49.2,42.5,35.3,84,61,39,29.84,29.71,9,3,17,0.00
2013-3-25,68.2,59.9,46.6,42.0,37.8,31.1,78,45,27,29.99,29.83,11,5,38,0.02
2013-3-26,71.6,63.6,56.7,53.5,45.7,40.3,88,54,35,29.91,29.79,16,5,41,0.07
2013-3-27,71.8,61.8,53.1,50.7,47.4,41.0,88,61,36,29.92,29.77,7,3,20,0.00
2013-3-28,75.6,61.9,50.7,55.1,49.5,43.7,88,67,38,30.08,29.86,7,2,14,0.00
2013-3-29,70.9,60.3,47.1,50.8,46.4,43.5,89,62,41,30.07,29.92,9,3,22,0.00
2013-3-30,69.1,65.3,58.5,49.8,41.2,33.5,71,42,28,30.04,29.84,18,8,34,0.01
2013-3-31,72.3,63.0,55.2,49.8,39.5,31.0,82,44,24,30.03,29.87,9,4,31,0.00
2013-4-1,68.5,60.7,54.9,57.0,49.0,38.6,96,67,45,29.87,29.63,10,4,24,0.28
2013-4-2,68.0,56.7,44.1,49.2,41.3,34.7,92,60,32,30.02,29.85,12,3,27,0.00
2013-4-3,71.6,60.6,43.9,47.6,40.3,36.4,84,50,30,30.03,29.81,7,2,17,0.00
2013-4-4,67.8,59.9,52.2,49.7,44.8,33.7,84,59,36,29.83,29.69,10,3,21,0.00
2013-4-5,71.4,59.2,49.8,50.3,45.5,41.2,82,62,41,29.95,29.79,7,3,15,0.00
2013-4-6,55.6,54.8,32.0,47.1,47.1,47.1,73,70,73,30.09,29.93,4,4,8,0.00
2013-4-8,32.0,32.0,32.0,47.1,47.1,47.1,0,0,100,30.06,30.06,0,0,0,0.00
2013-4-9,32.0,32.0,32.0,47.1,47.1,47.1,0,0,100,30.10,30.10,0,0,0,0.00
2013-4-14,32.0,32.0,32.0,47.1,47.1,47.1,0,0,100,30.45,30.45,0,0,0,0.00